createdAt,value
2019-01-15T00:00:56.689Z,1.33
2019-01-15T00:06:15.227Z,1.30
2019-01-15T00:11:33.852Z,1.31
2019-01-15T00:16:52.390Z,1.34
2019-01-15T00:22:10.923Z,1.22
2019-01-15T00:27:29.463Z,1.23
2019-01-15T00:32:48.084Z,1.19
2019-01-15T00:38:06.690Z,1.22
2019-01-15T00:43:25.145Z,1.07
2019-01-15T00:48:43.633Z,1.12
2019-01-15T00:54:02.180Z,1.07
2019-01-15T00:59:20.719Z,1.08
2019-01-15T01:04:39.330Z,1.15
2019-01-15T01:09:57.935Z,1.15
2019-01-15T01:15:56.509Z,1.08
2019-01-15T01:21:14.981Z,0.94
2019-01-15T01:26:33.593Z,0.92
2019-01-15T01:31:52.133Z,0.94
2019-01-15T01:37:11.028Z,0.98
2019-01-15T01:42:29.807Z,0.95
2019-01-15T01:47:49.843Z,1.10
2019-01-15T01:53:08.479Z,1.13
2019-01-15T01:58:27.039Z,1.20
2019-01-15T02:03:45.582Z,1.24
2019-01-15T02:09:18.665Z,1.30
2019-01-15T02:14:37.212Z,1.36
2019-01-15T02:19:55.827Z,1.36
2019-01-15T02:25:54.196Z,1.44
2019-01-15T02:31:12.733Z,1.50
2019-01-15T02:36:31.357Z,1.50
2019-01-15T02:41:49.984Z,1.52
2019-01-15T02:47:08.530Z,1.56
2019-01-15T02:52:27.064Z,1.50
2019-01-15T02:57:45.672Z,1.50
2019-01-15T03:03:04.474Z,1.56
2019-01-15T03:08:23.030Z,1.60
2019-01-15T03:13:41.570Z,1.63
2019-01-15T03:19:00.105Z,1.63
2019-01-15T03:24:18.649Z,1.74
2019-01-15T03:29:37.204Z,1.80
2019-01-15T03:34:55.785Z,1.79
2019-01-15T03:40:54.157Z,1.82
2019-01-15T03:46:12.773Z,1.92
2019-01-15T03:51:31.398Z,2.00
2019-01-15T03:56:49.941Z,2.00
2019-01-15T04:13:13.425Z,1.99
2019-01-15T04:18:32.232Z,2.02
2019-01-15T04:23:50.769Z,2.06
2019-01-15T04:29:09.319Z,2.07
2019-01-15T04:34:27.913Z,2.13
2019-01-15T04:39:46.317Z,2.13
2019-01-15T04:45:45.608Z,2.13
2019-01-15T05:02:07.144Z,2.28
2019-01-15T05:07:25.704Z,2.15
2019-01-15T05:12:44.313Z,2.26
2019-01-15T05:18:02.950Z,2.31
2019-01-15T05:23:21.635Z,2.31
2019-01-15T05:28:40.249Z,2.39
2019-01-15T05:33:59.103Z,2.47
2019-01-15T05:39:17.568Z,2.44
2019-01-15T05:44:36.110Z,2.48
2019-01-15T05:50:33.098Z,2.43
2019-01-15T05:55:51.711Z,2.45
2019-01-15T06:01:10.396Z,2.57
2019-01-15T06:06:28.901Z,2.61
2019-01-15T06:11:47.364Z,2.66
2019-01-15T06:17:05.987Z,2.70
2019-01-15T06:22:24.595Z,2.72
2019-01-15T06:27:43.206Z,2.78
2019-01-15T06:33:01.812Z,2.74
2019-01-15T06:38:20.346Z,2.77
2019-01-15T06:43:38.967Z,2.87
2019-01-15T06:48:57.496Z,2.89
2019-01-15T06:54:16.058Z,2.99
2019-01-15T06:59:34.668Z,3.00
2019-01-15T07:04:53.189Z,3.09
2019-01-15T07:10:50.252Z,3.07
2019-01-15T07:27:07.257Z,3.09
2019-01-15T07:32:25.859Z,3.13
2019-01-15T07:37:44.466Z,3.10
2019-01-15T07:43:03.009Z,3.18
2019-01-15T07:48:21.621Z,3.16
2019-01-15T07:53:40.191Z,3.14
2019-01-15T08:04:29.416Z,3.16
2019-01-15T08:09:47.976Z,3.22
2019-01-15T08:15:46.351Z,3.24
2019-01-15T08:21:04.955Z,3.22
2019-01-15T08:26:23.577Z,3.31
2019-01-15T08:31:42.126Z,3.45
2019-01-15T08:37:00.863Z,3.53
2019-01-15T08:42:38.738Z,3.58
2019-01-15T08:53:26.677Z,3.73
2019-01-15T08:58:45.292Z,3.90
2019-01-15T09:04:04.286Z,3.98
2019-01-15T09:09:22.762Z,3.99
2019-01-15T09:14:41.385Z,4.12
2019-01-15T09:20:20.063Z,4.19
2019-01-15T09:25:38.675Z,4.36
2019-01-15T09:30:57.636Z,4.39
2019-01-15T09:36:16.109Z,4.46
2019-01-15T09:47:03.873Z,4.78
2019-01-15T09:53:02.351Z,4.86
2019-01-15T09:58:21.039Z,4.80
2019-01-15T10:03:39.661Z,4.77
2019-01-15T10:09:17.545Z,4.94
2019-01-15T10:14:41.189Z,4.97
2019-01-15T10:19:56.389Z,5.08
2019-01-15T10:25:54.774Z,5.11
2019-01-15T10:31:53.300Z,5.10
2019-01-15T10:37:11.908Z,5.16
2019-01-15T10:42:30.520Z,5.24
2019-01-15T10:47:48.985Z,5.23
2019-01-15T10:53:07.598Z,5.21
2019-01-15T10:58:26.076Z,5.23
2019-01-15T11:03:44.618Z,5.29
2019-01-15T11:20:01.541Z,5.36
2019-01-15T11:25:20.154Z,5.45
2019-01-15T11:30:58.025Z,5.58
2019-01-15T11:36:16.557Z,5.58
2019-01-15T11:41:35.085Z,5.72
2019-01-15T11:46:53.555Z,5.79
2019-01-15T11:52:12.010Z,5.90
2019-01-15T11:57:30.602Z,5.89
2019-01-15T12:14:09.971Z,5.96
2019-01-15T12:31:12.575Z,6.09
2019-01-15T12:36:50.166Z,6.09
2019-01-15T12:42:27.741Z,6.07
2019-01-15T12:48:05.465Z,5.96
2019-01-15T12:53:43.186Z,5.93
2019-01-15T12:59:20.848Z,6.02
2019-01-15T13:10:48.373Z,6.07
2019-01-15T13:21:55.321Z,6.12
2019-01-15T13:27:33.036Z,6.15
2019-01-15T13:38:42.778Z,6.38
2019-01-15T13:44:20.496Z,6.31
2019-01-15T13:49:58.219Z,6.38
2019-01-15T13:55:35.935Z,6.39
2019-01-15T14:01:13.580Z,6.31
2019-01-15T14:07:10.822Z,6.27
2019-01-15T14:12:48.467Z,6.14
2019-01-15T14:18:26.218Z,6.17
2019-01-15T14:24:03.855Z,5.97
2019-01-15T14:29:41.574Z,5.67
2019-01-15T14:35:19.213Z,5.65
2019-01-15T14:40:56.943Z,5.58
2019-01-15T14:46:34.663Z,5.56
2019-01-15T14:52:12.377Z,5.42
2019-01-15T15:03:28.557Z,5.38
2019-01-15T15:09:06.145Z,5.48
2019-01-15T15:14:43.858Z,5.50
2019-01-15T15:26:14.752Z,5.58
2019-01-15T15:31:52.440Z,5.59
2019-01-15T15:37:30.155Z,5.69
2019-01-15T15:48:36.890Z,5.70
2019-01-15T15:54:14.521Z,5.65
2019-01-15T15:59:52.244Z,5.65
2019-01-15T16:11:23.092Z,5.66
2019-01-15T16:22:53.785Z,5.70
2019-01-15T16:34:18.334Z,5.72
2019-01-15T16:39:56.360Z,5.70
2019-01-15T16:45:54.742Z,5.63
2019-01-15T16:51:32.646Z,5.72
2019-01-15T16:57:08.751Z,5.71
2019-01-15T17:02:46.461Z,5.66
2019-01-15T17:08:44.828Z,5.68
2019-01-15T17:19:51.699Z,5.67
2019-01-15T17:25:29.420Z,5.67
2019-01-15T17:36:39.305Z,5.68
2019-01-15T17:53:15.573Z,5.72
2019-01-15T18:09:52.060Z,5.71
2019-01-15T18:15:29.771Z,5.68
2019-01-15T18:21:26.691Z,5.68
2019-01-15T18:27:04.260Z,5.67
2019-01-15T18:32:41.838Z,5.65
2019-01-15T18:43:51.569Z,5.76
2019-01-15T18:49:29.163Z,5.70
2019-01-15T19:00:38.885Z,5.72
2019-01-15T19:06:16.477Z,5.68
2019-01-15T19:11:54.113Z,5.67
2019-01-15T19:17:31.806Z,5.70
2019-01-15T19:23:09.412Z,5.71
2019-01-15T19:28:46.976Z,5.72
2019-01-15T19:39:53.837Z,5.69
2019-01-15T19:51:22.984Z,5.68
2019-01-15T19:57:00.631Z,5.66
2019-01-15T20:02:38.788Z,5.65
2019-01-15T20:08:16.504Z,5.64
2019-01-15T20:13:54.153Z,5.66
2019-01-15T20:25:04.022Z,5.67
2019-01-15T20:30:41.696Z,5.68
2019-01-15T20:36:19.284Z,5.61
2019-01-15T20:47:51.398Z,5.63
2019-01-15T20:53:29.057Z,5.61
2019-01-15T21:04:35.924Z,5.67
2019-01-15T21:10:33.330Z,5.68
2019-01-15T21:21:40.135Z,5.68
2019-01-15T21:32:46.922Z,5.69
2019-01-15T21:38:24.639Z,5.66
2019-01-15T21:49:31.477Z,5.71
2019-01-15T21:55:09.897Z,5.73
2019-01-15T22:01:06.891Z,5.76
2019-01-15T22:07:04.659Z,5.71
2019-01-15T22:12:50.233Z,5.73
2019-01-15T22:18:16.597Z,5.72
2019-01-15T22:23:52.271Z,5.72
2019-01-15T22:29:12.458Z,5.72
2019-01-15T22:34:41.776Z,5.69
2019-01-15T22:40:04.762Z,5.68
2019-01-15T22:45:25.021Z,5.70
2019-01-15T22:50:45.309Z,5.66
2019-01-15T22:56:11.297Z,5.66
2019-01-15T23:01:45.616Z,5.66
2019-01-15T23:07:20.645Z,5.62
2019-01-15T23:12:40.997Z,5.63
2019-01-15T23:18:17.743Z,5.59
2019-01-15T23:23:38.000Z,5.60
2019-01-15T23:29:01.154Z,5.63
2019-01-15T23:34:21.431Z,5.60
2019-01-15T23:39:50.299Z,5.62
2019-01-15T23:45:26.693Z,5.68
2019-01-15T23:50:49.816Z,5.66
2019-01-15T23:56:10.121Z,5.65
